createdAt,value
2022-12-03T00:04:06.534Z,58.80
2022-12-03T00:09:09.313Z,59.22
2022-12-03T00:14:12.066Z,59.42
2022-12-03T00:19:16.197Z,59.50
2022-12-03T00:24:19.136Z,59.59
2022-12-03T00:29:21.934Z,59.43
2022-12-03T00:34:26.041Z,59.54
2022-12-03T00:39:31.140Z,59.69
2022-12-03T00:44:33.941Z,59.64
2022-12-03T00:49:38.021Z,59.83
2022-12-03T00:54:40.796Z,60.04
2022-12-03T00:59:43.586Z,60.10
2022-12-03T01:04:47.861Z,60.30
2022-12-03T01:09:50.756Z,60.15
2022-12-03T01:14:54.508Z,60.14
2022-12-03T01:19:59.120Z,60.34
2022-12-03T01:25:02.064Z,60.11
2022-12-03T01:30:05.716Z,60.51
2022-12-03T01:35:10.385Z,60.56
2022-12-03T01:40:20.900Z,60.67
2022-12-03T01:45:25.476Z,60.71
2022-12-03T01:50:34.214Z,60.82
2022-12-03T01:55:38.100Z,60.87
2022-12-03T02:00:41.405Z,60.98
2022-12-03T02:05:45.573Z,61.22
2022-12-03T02:10:48.351Z,61.16
2022-12-03T02:15:51.176Z,61.30
2022-12-03T02:21:05.633Z,61.54
2022-12-03T02:26:09.994Z,61.37
2022-12-03T02:31:12.953Z,61.33
2022-12-03T02:36:16.095Z,61.48
2022-12-03T02:41:39.574Z,61.54
2022-12-03T02:46:42.607Z,61.55
2022-12-03T02:51:46.052Z,61.70
2022-12-03T02:56:50.401Z,61.63
2022-12-03T03:01:53.285Z,61.57
2022-12-03T03:06:56.154Z,61.80
2022-12-03T03:12:00.287Z,61.71
2022-12-03T03:17:04.515Z,61.77
2022-12-03T03:22:07.268Z,61.74
2022-12-03T03:27:11.744Z,61.96
2022-12-03T03:32:14.693Z,61.88
2022-12-03T03:37:17.837Z,61.93
2022-12-03T03:42:22.557Z,62.00
2022-12-03T03:47:25.704Z,62.13
2022-12-03T03:52:29.020Z,61.95
2022-12-03T03:57:33.549Z,62.19
2022-12-03T04:02:38.324Z,62.16
2022-12-03T04:07:41.069Z,62.42
2022-12-03T04:12:57.005Z,62.33
2022-12-03T04:18:17.319Z,62.33
2022-12-03T04:23:20.103Z,62.39
2022-12-03T04:28:41.857Z,62.48
2022-12-03T04:34:02.054Z,62.38
2022-12-03T04:39:05.048Z,62.57
2022-12-03T04:44:26.935Z,62.42
2022-12-03T04:49:29.908Z,62.30
2022-12-03T04:54:32.804Z,62.49
2022-12-03T04:59:37.752Z,62.44
2022-12-03T05:04:40.500Z,62.59
2022-12-03T05:09:43.293Z,62.72
2022-12-03T05:14:47.589Z,62.75
2022-12-03T05:20:07.895Z,62.57
2022-12-03T05:25:11.094Z,62.58
2022-12-03T05:30:15.711Z,62.84
2022-12-03T05:35:18.790Z,62.82
2022-12-03T05:40:22.129Z,62.77
2022-12-03T05:45:28.986Z,62.63
2022-12-03T05:50:35.363Z,62.82
2022-12-03T05:55:49.711Z,62.81
2022-12-03T06:00:53.768Z,62.65
2022-12-03T06:05:56.695Z,62.71
2022-12-03T06:10:59.455Z,62.61
2022-12-03T06:16:03.658Z,62.66
2022-12-03T06:21:06.827Z,62.45
2022-12-03T06:26:09.883Z,62.55
2022-12-03T06:31:14.201Z,62.73
2022-12-03T06:36:22.573Z,63.26
2022-12-03T06:41:25.970Z,63.32
2022-12-03T06:46:30.206Z,63.01
2022-12-03T06:51:33.036Z,62.92
2022-12-03T06:56:40.393Z,62.91
2022-12-03T07:01:49.104Z,62.74
2022-12-03T07:06:52.026Z,62.80
2022-12-03T07:11:54.751Z,62.80
2022-12-03T07:16:58.977Z,62.67
2022-12-03T07:22:02.106Z,62.73
2022-12-03T07:27:05.037Z,62.77
2022-12-03T07:32:09.229Z,62.71
2022-12-03T07:37:12.038Z,62.87
2022-12-03T07:42:16.365Z,63.17
2022-12-03T07:47:20.517Z,63.02
2022-12-03T07:52:23.411Z,62.96
2022-12-03T07:57:26.210Z,62.83
2022-12-03T08:02:30.373Z,62.93
2022-12-03T08:07:33.276Z,62.32
2022-12-03T08:12:41.736Z,60.29
2022-12-03T08:17:48.384Z,49.34
2022-12-03T08:22:53.524Z,46.17
2022-12-03T08:28:03.563Z,47.31
2022-12-03T08:33:18.474Z,49.10
2022-12-03T08:38:23.302Z,50.19
2022-12-03T08:43:28.121Z,50.85
2022-12-03T08:48:33.698Z,51.60
2022-12-03T08:53:38.117Z,52.00
2022-12-03T08:58:42.467Z,52.20
2022-12-03T09:03:51.597Z,52.68
2022-12-03T09:08:54.406Z,52.95
2022-12-03T09:13:57.151Z,53.44
2022-12-03T09:19:01.272Z,53.76
2022-12-03T09:24:04.207Z,53.89
2022-12-03T09:29:11.848Z,54.19
2022-12-03T09:34:16.912Z,54.20
2022-12-03T09:39:19.737Z,54.53
2022-12-03T09:44:22.857Z,55.18
2022-12-03T09:49:28.872Z,54.86
2022-12-03T09:54:33.246Z,55.17
2022-12-03T09:59:36.054Z,55.61
2022-12-03T10:04:40.203Z,55.77
2022-12-03T10:09:43.116Z,55.98
2022-12-03T10:14:45.922Z,55.76
2022-12-03T10:19:50.490Z,55.17
2022-12-03T10:25:07.627Z,55.20
2022-12-03T10:30:18.371Z,55.11
2022-12-03T10:35:24.397Z,55.07
2022-12-03T10:40:31.520Z,55.36
2022-12-03T10:45:34.321Z,55.49
2022-12-03T10:50:38.781Z,55.87
2022-12-03T10:55:44.198Z,56.06
2022-12-03T11:00:47.392Z,56.26
2022-12-03T11:05:53.056Z,56.37
2022-12-03T11:11:00.839Z,56.35
2022-12-03T11:16:05.705Z,56.65
2022-12-03T11:21:12.193Z,57.08
2022-12-03T11:26:19.256Z,57.01
2022-12-03T11:31:40.270Z,56.94
2022-12-03T11:37:16.469Z,57.18
2022-12-03T11:42:41.136Z,57.63
2022-12-03T11:47:46.669Z,57.46
2022-12-03T11:52:54.467Z,57.62
2022-12-03T11:58:04.940Z,57.33
2022-12-03T12:03:23.434Z,57.61
2022-12-03T12:08:26.250Z,42.82
2022-12-03T12:13:50.254Z,43.23
2022-12-03T12:18:55.421Z,45.62
2022-12-03T12:24:18.921Z,46.58
2022-12-03T12:29:23.229Z,47.80
2022-12-03T12:34:26.452Z,48.52
2022-12-03T12:39:29.624Z,49.31
2022-12-03T12:44:33.944Z,50.07
2022-12-03T12:49:36.717Z,50.45
2022-12-03T12:54:39.565Z,50.92
2022-12-03T12:59:43.698Z,51.42
2022-12-03T13:04:46.515Z,51.67
2022-12-03T13:09:54.756Z,52.25
2022-12-03T13:15:01.219Z,52.37
2022-12-03T13:20:15.488Z,52.88
2022-12-03T13:25:58.247Z,53.29
2022-12-03T13:31:11.002Z,53.42
2022-12-03T13:36:16.924Z,53.86
2022-12-03T13:41:39.462Z,54.00
2022-12-03T13:46:44.116Z,54.37
2022-12-03T13:51:47.273Z,54.65
2022-12-03T13:56:50.968Z,54.97
2022-12-03T14:01:55.377Z,54.61
2022-12-03T14:06:58.260Z,54.80
2022-12-03T14:12:18.740Z,54.38
2022-12-03T14:17:23.015Z,54.37
2022-12-03T14:22:25.993Z,54.08
2022-12-03T14:27:28.974Z,54.51
2022-12-03T14:32:33.187Z,54.43
2022-12-03T14:37:36.121Z,54.46
2022-12-03T14:42:38.878Z,53.73
2022-12-03T14:47:43.141Z,53.79
2022-12-03T14:53:01.544Z,53.75
2022-12-03T14:58:04.827Z,53.17
2022-12-03T15:03:09.040Z,52.97
2022-12-03T15:08:11.875Z,52.96
2022-12-03T15:13:14.787Z,52.78
2022-12-03T15:18:18.909Z,52.91
2022-12-03T15:23:22.015Z,52.83
2022-12-03T15:28:24.854Z,52.89
2022-12-03T15:33:29.071Z,53.04
2022-12-03T15:38:31.832Z,52.93
2022-12-03T15:43:35.189Z,52.90
2022-12-03T15:48:39.455Z,52.91
2022-12-03T15:53:45.979Z,52.85
2022-12-03T15:58:49.171Z,52.76
2022-12-03T16:03:53.706Z,52.99
2022-12-03T16:08:56.521Z,52.88
2022-12-03T16:13:59.632Z,53.08
2022-12-03T16:19:04.277Z,52.55
2022-12-03T16:24:07.426Z,52.80
2022-12-03T16:29:10.261Z,52.98
2022-12-03T16:34:14.635Z,53.27
2022-12-03T16:39:17.402Z,53.16
2022-12-03T16:44:32.494Z,53.26
2022-12-03T16:49:36.692Z,53.26
2022-12-03T16:54:39.741Z,53.28
2022-12-03T16:59:42.848Z,53.34
2022-12-03T17:04:46.990Z,53.31
2022-12-03T17:09:50.770Z,53.39
2022-12-03T17:14:53.670Z,53.50
2022-12-03T17:19:58.104Z,53.30
2022-12-03T17:25:01.072Z,53.52
2022-12-03T17:30:09.329Z,53.70
2022-12-03T17:35:13.672Z,53.73
2022-12-03T17:40:17.721Z,53.75
2022-12-03T17:45:20.731Z,53.80
2022-12-03T17:50:25.033Z,53.67
2022-12-03T17:55:36.978Z,53.97
2022-12-03T18:00:44.056Z,54.21
2022-12-03T18:05:48.611Z,54.42
2022-12-03T18:10:51.520Z,54.48
2022-12-03T18:15:54.520Z,54.61
2022-12-03T18:21:02.038Z,54.40
2022-12-03T18:26:05.337Z,54.53
2022-12-03T18:31:14.586Z,54.71
2022-12-03T18:36:21.828Z,54.71
2022-12-03T18:41:25.550Z,55.01
2022-12-03T18:46:52.533Z,54.76
2022-12-03T18:51:59.066Z,55.34
2022-12-03T18:57:02.646Z,55.30
2022-12-03T19:02:06.073Z,55.18
2022-12-03T19:07:10.904Z,55.48
2022-12-03T19:12:14.855Z,55.50
2022-12-03T19:17:17.776Z,55.57
2022-12-03T19:22:22.109Z,56.05
2022-12-03T19:27:24.970Z,56.10
2022-12-03T19:32:27.974Z,56.12
2022-12-03T19:37:34.496Z,55.98
2022-12-03T19:42:37.322Z,56.17
2022-12-03T19:47:40.343Z,56.02
2022-12-03T19:52:44.807Z,55.99
2022-12-03T19:57:48.153Z,55.87
2022-12-03T20:02:51.163Z,55.71
2022-12-03T20:07:55.774Z,55.67
2022-12-03T20:12:58.795Z,55.39
2022-12-03T20:18:01.575Z,55.30
2022-12-03T20:23:05.938Z,55.42
2022-12-03T20:28:08.738Z,55.30
2022-12-03T20:33:11.798Z,55.11
2022-12-03T20:38:16.168Z,54.91
2022-12-03T20:43:19.700Z,55.06
2022-12-03T20:48:22.730Z,54.99
2022-12-03T20:53:26.984Z,54.76
2022-12-03T20:58:31.096Z,55.08
2022-12-03T21:03:34.506Z,55.58
2022-12-03T21:08:42.143Z,55.72
2022-12-03T21:13:46.419Z,55.72
2022-12-03T21:18:49.469Z,55.76
2022-12-03T21:23:54.507Z,55.67
2022-12-03T21:28:57.361Z,55.59
2022-12-03T21:34:00.449Z,55.79
2022-12-03T21:39:05.337Z,55.69
2022-12-03T21:44:08.223Z,54.26
2022-12-03T21:49:11.080Z,55.74
2022-12-03T21:54:15.566Z,55.93
2022-12-03T21:59:18.407Z,56.15
2022-12-03T22:04:21.479Z,56.08
2022-12-03T22:09:26.831Z,56.14
2022-12-03T22:14:30.241Z,56.35
2022-12-03T22:19:33.160Z,56.35
2022-12-03T22:24:38.585Z,56.77
2022-12-03T22:29:41.683Z,56.91
2022-12-03T22:34:44.457Z,56.97
2022-12-03T22:39:48.644Z,57.24
2022-12-03T22:44:51.784Z,57.26
2022-12-03T22:49:54.811Z,57.56
2022-12-03T22:54:59.249Z,57.78
2022-12-03T23:00:02.050Z,57.91
2022-12-03T23:05:05.840Z,57.92
2022-12-03T23:10:11.185Z,58.25
2022-12-03T23:15:14.250Z,58.46
2022-12-03T23:20:17.130Z,58.24
2022-12-03T23:25:22.300Z,58.74
2022-12-03T23:30:25.348Z,58.85
2022-12-03T23:35:28.189Z,59.03
2022-12-03T23:40:32.343Z,59.13
2022-12-03T23:45:35.387Z,59.09
2022-12-03T23:50:41.216Z,59.52
2022-12-03T23:55:45.785Z,59.40
